MD34 weather

Ibm Heliport
Gaithersburg, Maryland, United States

Public forecast

Using degrees Fahrenheit for public forecast. Weather courtesy of forecast.io.

Closest aviation weather report (METAR) to Ibm Heliport

Closest report is Montgomery County Airpark, 2.5 nm (4.7 km) ENE. Retrieved 2020/05/29 17:56 UTC (55 minutes ago):

KGAI 291756Z AUTO 19007G14KT 10SM SCT037 30/22 A2997 RMK AO2 SLP156 T03000217 10311 20239 58015

Closest aviation forecast (TAF) to Ibm Heliport

Closest forecast is Washington Dulles International Airport, 16.8 nm (31.1 km) SW. Retrieved 2020/05/29 18:33 UTC (18 minutes ago):

TAF KIAD 291730Z 2918/3024 20012G20KT P6SM SCT040 BKN130 FM292100 21012G20KT P6SM VCTS SCT040CB BKN130 FM300100 24008KT P6SM SCT040 BKN130 FM300800 33008G16KT P6SM SCT100 FM301800 33008KT P6SM SKC